sensor_id;sensor_type;location;lat;lon;timestamp;P1;durP1;ratioP1;P2;durP2;ratioP2
79135;SDS011;68533;51.090;17.216;2023-08-06T00:00:41;2.67;;;1.70;;
79135;SDS011;68533;51.090;17.216;2023-08-06T00:03:28;4.63;;;2.20;;
79135;SDS011;68533;51.090;17.216;2023-08-06T00:05:53;2.75;;;1.83;;
79135;SDS011;68533;51.090;17.216;2023-08-06T00:08:20;2.30;;;1.50;;
79135;SDS011;68533;51.090;17.216;2023-08-06T00:10:47;3.55;;;1.60;;
79135;SDS011;68533;51.090;17.216;2023-08-06T00:13:14;2.85;;;2.20;;
79135;SDS011;68533;51.090;17.216;2023-08-06T00:15:40;2.17;;;1.67;;
79135;SDS011;68533;51.090;17.216;2023-08-06T00:18:06;2.30;;;1.30;;
79135;SDS011;68533;51.090;17.216;2023-08-06T00:20:32;4.13;;;1.50;;
79135;SDS011;68533;51.090;17.216;2023-08-06T00:22:58;1.80;;;1.45;;
79135;SDS011;68533;51.090;17.216;2023-08-06T00:25:24;1.88;;;1.30;;
79135;SDS011;68533;51.090;17.216;2023-08-06T00:27:50;2.33;;;1.42;;
79135;SDS011;68533;51.090;17.216;2023-08-06T00:30:16;2.55;;;1.63;;
79135;SDS011;68533;51.090;17.216;2023-08-06T00:32:42;1.70;;;1.40;;
79135;SDS011;68533;51.090;17.216;2023-08-06T00:35:09;1.77;;;1.23;;
79135;SDS011;68533;51.090;17.216;2023-08-06T00:37:35;3.28;;;1.20;;
79135;SDS011;68533;51.090;17.216;2023-08-06T00:40:04;2.50;;;1.40;;
79135;SDS011;68533;51.090;17.216;2023-08-06T00:42:32;1.95;;;1.23;;
79135;SDS011;68533;51.090;17.216;2023-08-06T00:44:58;2.15;;;1.33;;
79135;SDS011;68533;51.090;17.216;2023-08-06T00:47:24;2.78;;;1.50;;
79135;SDS011;68533;51.090;17.216;2023-08-06T00:49:50;5.28;;;1.13;;
79135;SDS011;68533;51.090;17.216;2023-08-06T00:52:16;3.13;;;1.48;;
79135;SDS011;68533;51.090;17.216;2023-08-06T00:54:43;1.65;;;1.33;;
79135;SDS011;68533;51.090;17.216;2023-08-06T00:57:09;5.80;;;1.40;;
79135;SDS011;68533;51.090;17.216;2023-08-06T00:59:36;2.60;;;1.42;;
79135;SDS011;68533;51.090;17.216;2023-08-06T01:02:03;3.38;;;1.48;;
79135;SDS011;68533;51.090;17.216;2023-08-06T01:04:31;2.53;;;1.23;;
79135;SDS011;68533;51.090;17.216;2023-08-06T01:09:34;1.80;;;1.63;;
79135;SDS011;68533;51.090;17.216;2023-08-06T01:12:25;1.77;;;1.30;;
79135;SDS011;68533;51.090;17.216;2023-08-06T01:15:52;1.20;;;0.90;;
79135;SDS011;68533;51.090;17.216;2023-08-06T01:18:00;2.13;;;1.20;;
79135;SDS011;68533;51.090;17.216;2023-08-06T01:20:29;2.35;;;1.25;;
79135;SDS011;68533;51.090;17.216;2023-08-06T01:22:56;2.33;;;1.55;;
79135;SDS011;68533;51.090;17.216;2023-08-06T01:25:24;1.70;;;1.02;;
79135;SDS011;68533;51.090;17.216;2023-08-06T01:28:01;2.05;;;1.48;;
79135;SDS011;68533;51.090;17.216;2023-08-06T01:30:32;1.92;;;1.13;;
79135;SDS011;68533;51.090;17.216;2023-08-06T01:33:04;1.77;;;1.23;;
79135;SDS011;68533;51.090;17.216;2023-08-06T01:35:33;3.20;;;1.08;;
79135;SDS011;68533;51.090;17.216;2023-08-06T01:38:01;2.20;;;1.42;;
79135;SDS011;68533;51.090;17.216;2023-08-06T01:40:28;2.95;;;1.33;;
79135;SDS011;68533;51.090;17.216;2023-08-06T01:42:55;4.75;;;1.42;;
79135;SDS011;68533;51.090;17.216;2023-08-06T01:45:21;2.95;;;0.98;;
79135;SDS011;68533;51.090;17.216;2023-08-06T01:47:47;1.73;;;1.10;;
79135;SDS011;68533;51.090;17.216;2023-08-06T01:50:13;1.63;;;1.00;;
79135;SDS011;68533;51.090;17.216;2023-08-06T01:52:39;1.05;;;0.60;;
79135;SDS011;68533;51.090;17.216;2023-08-06T01:55:05;1.50;;;0.85;;
79135;SDS011;68533;51.090;17.216;2023-08-06T01:57:31;1.33;;;0.93;;
79135;SDS011;68533;51.090;17.216;2023-08-06T01:59:57;0.90;;;0.70;;
79135;SDS011;68533;51.090;17.216;2023-08-06T02:02:23;1.58;;;1.05;;
79135;SDS011;68533;51.090;17.216;2023-08-06T02:04:49;1.65;;;0.65;;
79135;SDS011;68533;51.090;17.216;2023-08-06T02:07:16;0.82;;;0.60;;
79135;SDS011;68533;51.090;17.216;2023-08-06T02:09:42;1.23;;;0.82;;
79135;SDS011;68533;51.090;17.216;2023-08-06T02:12:08;1.27;;;0.82;;
79135;SDS011;68533;51.090;17.216;2023-08-06T02:14:34;2.22;;;0.60;;
79135;SDS011;68533;51.090;17.216;2023-08-06T02:17:00;1.00;;;0.65;;
79135;SDS011;68533;51.090;17.216;2023-08-06T02:19:26;1.95;;;0.60;;
79135;SDS011;68533;51.090;17.216;2023-08-06T02:21:52;0.80;;;0.52;;
79135;SDS011;68533;51.090;17.216;2023-08-06T02:24:18;0.88;;;0.57;;
79135;SDS011;68533;51.090;17.216;2023-08-06T02:26:44;1.25;;;0.60;;
79135;SDS011;68533;51.090;17.216;2023-08-06T02:29:10;3.47;;;0.80;;
79135;SDS011;68533;51.090;17.216;2023-08-06T02:31:36;2.45;;;0.60;;
79135;SDS011;68533;51.090;17.216;2023-08-06T02:34:02;1.52;;;0.52;;
79135;SDS011;68533;51.090;17.216;2023-08-06T02:36:28;1.45;;;0.65;;
79135;SDS011;68533;51.090;17.216;2023-08-06T02:38:55;1.67;;;0.80;;
79135;SDS011;68533;51.090;17.216;2023-08-06T02:41:21;2.05;;;0.90;;
79135;SDS011;68533;51.090;17.216;2023-08-06T02:43:47;3.70;;;0.63;;
79135;SDS011;68533;51.090;17.216;2023-08-06T02:46:13;1.33;;;0.80;;
79135;SDS011;68533;51.090;17.216;2023-08-06T02:48:39;1.42;;;1.00;;
79135;SDS011;68533;51.090;17.216;2023-08-06T02:51:05;1.27;;;0.80;;
79135;SDS011;68533;51.090;17.216;2023-08-06T02:53:31;1.75;;;0.80;;
79135;SDS011;68533;51.090;17.216;2023-08-06T02:55:57;1.08;;;0.80;;
79135;SDS011;68533;51.090;17.216;2023-08-06T02:58:24;1.23;;;0.70;;
79135;SDS011;68533;51.090;17.216;2023-08-06T03:01:03;1.05;;;0.65;;
79135;SDS011;68533;51.090;17.216;2023-08-06T03:03:31;1.40;;;0.80;;
79135;SDS011;68533;51.090;17.216;2023-08-06T03:05:57;1.00;;;0.52;;
79135;SDS011;68533;51.090;17.216;2023-08-06T03:08:23;0.80;;;0.35;;
79135;SDS011;68533;51.090;17.216;2023-08-06T03:10:50;1.30;;;0.80;;
79135;SDS011;68533;51.090;17.216;2023-08-06T03:13:16;1.00;;;0.60;;
79135;SDS011;68533;51.090;17.216;2023-08-06T03:15:42;2.55;;;0.70;;
79135;SDS011;68533;51.090;17.216;2023-08-06T03:18:09;1.42;;;0.82;;
79135;SDS011;68533;51.090;17.216;2023-08-06T03:20:35;1.50;;;0.60;;
79135;SDS011;68533;51.090;17.216;2023-08-06T03:23:01;1.00;;;0.50;;
79135;SDS011;68533;51.090;17.216;2023-08-06T03:25:27;1.50;;;0.40;;
79135;SDS011;68533;51.090;17.216;2023-08-06T03:27:53;0.70;;;0.52;;
79135;SDS011;68533;51.090;17.216;2023-08-06T03:30:19;0.98;;;0.47;;
79135;SDS011;68533;51.090;17.216;2023-08-06T03:32:45;0.65;;;0.43;;
79135;SDS011;68533;51.090;17.216;2023-08-06T03:35:12;1.00;;;0.50;;
79135;SDS011;68533;51.090;17.216;2023-08-06T03:37:38;2.25;;;0.60;;
79135;SDS011;68533;51.090;17.216;2023-08-06T03:40:05;0.98;;;0.45;;
79135;SDS011;68533;51.090;17.216;2023-08-06T03:42:31;2.35;;;0.50;;
79135;SDS011;68533;51.090;17.216;2023-08-06T03:44:58;2.80;;;0.47;;
79135;SDS011;68533;51.090;17.216;2023-08-06T03:47:23;0.45;;;0.40;;
79135;SDS011;68533;51.090;17.216;2023-08-06T03:49:50;1.38;;;0.35;;
79135;SDS011;68533;51.090;17.216;2023-08-06T03:52:16;0.50;;;0.25;;
79135;SDS011;68533;51.090;17.216;2023-08-06T03:54:42;2.63;;;0.30;;
79135;SDS011;68533;51.090;17.216;2023-08-06T03:57:08;0.45;;;0.25;;
79135;SDS011;68533;51.090;17.216;2023-08-06T03:59:35;0.50;;;0.25;;
79135;SDS011;68533;51.090;17.216;2023-08-06T04:02:01;0.63;;;0.30;;
79135;SDS011;68533;51.090;17.216;2023-08-06T04:04:28;0.28;;;0.20;;
79135;SDS011;68533;51.090;17.216;2023-08-06T04:06:53;0.45;;;0.30;;
79135;SDS011;68533;51.090;17.216;2023-08-06T04:09:20;0.85;;;0.40;;
79135;SDS011;68533;51.090;17.216;2023-08-06T04:12:07;0.22;;;0.10;;
79135;SDS011;68533;51.090;17.216;2023-08-06T04:14:35;2.20;;;0.30;;
79135;SDS011;68533;51.090;17.216;2023-08-06T04:17:01;0.50;;;0.25;;
79135;SDS011;68533;51.090;17.216;2023-08-06T04:19:27;0.43;;;0.20;;
79135;SDS011;68533;51.090;17.216;2023-08-06T04:21:53;0.90;;;0.30;;
79135;SDS011;68533;51.090;17.216;2023-08-06T04:24:20;0.57;;;0.30;;
79135;SDS011;68533;51.090;17.216;2023-08-06T04:26:45;1.33;;;0.30;;
79135;SDS011;68533;51.090;17.216;2023-08-06T04:29:12;0.30;;;0.25;;
79135;SDS011;68533;51.090;17.216;2023-08-06T04:31:39;0.60;;;0.30;;
79135;SDS011;68533;51.090;17.216;2023-08-06T04:34:06;0.55;;;0.40;;
79135;SDS011;68533;51.090;17.216;2023-08-06T04:36:33;2.90;;;0.28;;
79135;SDS011;68533;51.090;17.216;2023-08-06T04:38:59;0.88;;;0.28;;
79135;SDS011;68533;51.090;17.216;2023-08-06T04:41:25;0.50;;;0.30;;
79135;SDS011;68533;51.090;17.216;2023-08-06T04:43:52;0.77;;;0.38;;
79135;SDS011;68533;51.090;17.216;2023-08-06T04:46:18;0.50;;;0.30;;
79135;SDS011;68533;51.090;17.216;2023-08-06T04:48:45;0.25;;;0.15;;
79135;SDS011;68533;51.090;17.216;2023-08-06T04:51:11;0.43;;;0.30;;
79135;SDS011;68533;51.090;17.216;2023-08-06T04:53:38;0.40;;;0.20;;
79135;SDS011;68533;51.090;17.216;2023-08-06T04:56:04;0.70;;;0.30;;
79135;SDS011;68533;51.090;17.216;2023-08-06T04:58:30;0.20;;;0.15;;
79135;SDS011;68533;51.090;17.216;2023-08-06T05:00:56;0.93;;;0.20;;
79135;SDS011;68533;51.090;17.216;2023-08-06T05:03:23;0.75;;;0.30;;
79135;SDS011;68533;51.090;17.216;2023-08-06T05:05:49;1.10;;;0.20;;
79135;SDS011;68533;51.090;17.216;2023-08-06T05:08:15;0.55;;;0.17;;
79135;SDS011;68533;51.090;17.216;2023-08-06T05:10:44;0.10;;;0.10;;
79135;SDS011;68533;51.090;17.216;2023-08-06T05:13:11;0.30;;;0.10;;
79135;SDS011;68533;51.090;17.216;2023-08-06T05:15:38;0.63;;;0.10;;
79135;SDS011;68533;51.090;17.216;2023-08-06T05:18:08;0.20;;;0.17;;
79135;SDS011;68533;51.090;17.216;2023-08-06T05:20:41;0.22;;;0.13;;
79135;SDS011;68533;51.090;17.216;2023-08-06T05:23:08;0.65;;;0.10;;
79135;SDS011;68533;51.090;17.216;2023-08-06T05:25:34;1.27;;;0.30;;
79135;SDS011;68533;51.090;17.216;2023-08-06T05:28:01;0.30;;;0.10;;
79135;SDS011;68533;51.090;17.216;2023-08-06T05:30:28;0.17;;;0.10;;
79135;SDS011;68533;51.090;17.216;2023-08-06T05:32:54;0.40;;;0.10;;
79135;SDS011;68533;51.090;17.216;2023-08-06T05:35:21;0.35;;;0.10;;
79135;SDS011;68533;51.090;17.216;2023-08-06T05:37:47;0.22;;;0.13;;
79135;SDS011;68533;51.090;17.216;2023-08-06T05:40:14;0.45;;;0.20;;
79135;SDS011;68533;51.090;17.216;2023-08-06T05:42:40;1.05;;;0.35;;
79135;SDS011;68533;51.090;17.216;2023-08-06T05:45:07;0.93;;;0.20;;
79135;SDS011;68533;51.090;17.216;2023-08-06T05:47:34;0.52;;;0.20;;
79135;SDS011;68533;51.090;17.216;2023-08-06T05:50:00;2.72;;;0.30;;
79135;SDS011;68533;51.090;17.216;2023-08-06T05:52:26;0.68;;;0.30;;
79135;SDS011;68533;51.090;17.216;2023-08-06T05:54:54;0.20;;;0.10;;
79135;SDS011;68533;51.090;17.216;2023-08-06T05:57:20;0.30;;;0.20;;
79135;SDS011;68533;51.090;17.216;2023-08-06T05:59:46;0.75;;;0.20;;
79135;SDS011;68533;51.090;17.216;2023-08-06T06:02:14;0.20;;;0.10;;
79135;SDS011;68533;51.090;17.216;2023-08-06T06:04:41;0.13;;;0.13;;
79135;SDS011;68533;51.090;17.216;2023-08-06T06:07:08;2.35;;;0.20;;
79135;SDS011;68533;51.090;17.216;2023-08-06T06:09:34;0.20;;;0.10;;
79135;SDS011;68533;51.090;17.216;2023-08-06T06:12:00;0.10;;;0.08;;
79135;SDS011;68533;51.090;17.216;2023-08-06T06:14:26;0.10;;;0.00;;
79135;SDS011;68533;51.090;17.216;2023-08-06T06:16:52;1.05;;;0.10;;
79135;SDS011;68533;51.090;17.216;2023-08-06T06:19:18;0.88;;;0.10;;
79135;SDS011;68533;51.090;17.216;2023-08-06T06:21:44;0.30;;;0.10;;
79135;SDS011;68533;51.090;17.216;2023-08-06T06:24:10;1.13;;;0.28;;
79135;SDS011;68533;51.090;17.216;2023-08-06T06:26:37;0.10;;;0.10;;
79135;SDS011;68533;51.090;17.216;2023-08-06T06:29:02;0.17;;;0.10;;
79135;SDS011;68533;51.090;17.216;2023-08-06T06:31:29;0.28;;;0.17;;
79135;SDS011;68533;51.090;17.216;2023-08-06T06:33:55;0.20;;;0.10;;
79135;SDS011;68533;51.090;17.216;2023-08-06T06:36:21;0.20;;;0.15;;
79135;SDS011;68533;51.090;17.216;2023-08-06T06:38:47;2.92;;;0.20;;
79135;SDS011;68533;51.090;17.216;2023-08-06T06:41:14;0.73;;;0.20;;
79135;SDS011;68533;51.090;17.216;2023-08-06T06:43:40;0.08;;;0.08;;
79135;SDS011;68533;51.090;17.216;2023-08-06T06:46:08;1.63;;;0.10;;
79135;SDS011;68533;51.090;17.216;2023-08-06T06:48:33;0.20;;;0.20;;
79135;SDS011;68533;51.090;17.216;2023-08-06T06:51:00;0.30;;;0.20;;
79135;SDS011;68533;51.090;17.216;2023-08-06T06:53:26;1.58;;;0.20;;
79135;SDS011;68533;51.090;17.216;2023-08-06T06:55:55;0.35;;;0.10;;
79135;SDS011;68533;51.090;17.216;2023-08-06T06:58:21;0.05;;;0.05;;
79135;SDS011;68533;51.090;17.216;2023-08-06T07:00:48;0.28;;;0.10;;
79135;SDS011;68533;51.090;17.216;2023-08-06T07:03:14;0.40;;;0.20;;
79135;SDS011;68533;51.090;17.216;2023-08-06T07:05:41;0.70;;;0.20;;
79135;SDS011;68533;51.090;17.216;2023-08-06T07:08:08;0.57;;;0.10;;
79135;SDS011;68533;51.090;17.216;2023-08-06T07:10:35;0.70;;;0.20;;
79135;SDS011;68533;51.090;17.216;2023-08-06T07:13:01;0.10;;;0.00;;
79135;SDS011;68533;51.090;17.216;2023-08-06T07:15:28;1.70;;;0.20;;
79135;SDS011;68533;51.090;17.216;2023-08-06T07:17:53;0.10;;;0.10;;
79135;SDS011;68533;51.090;17.216;2023-08-06T07:20:20;1.45;;;0.20;;
79135;SDS011;68533;51.090;17.216;2023-08-06T07:22:46;0.03;;;0.03;;
79135;SDS011;68533;51.090;17.216;2023-08-06T07:25:13;0.10;;;0.10;;
79135;SDS011;68533;51.090;17.216;2023-08-06T07:27:38;0.30;;;0.20;;
79135;SDS011;68533;51.090;17.216;2023-08-06T07:30:05;0.22;;;0.10;;
79135;SDS011;68533;51.090;17.216;2023-08-06T07:32:31;0.30;;;0.10;;
79135;SDS011;68533;51.090;17.216;2023-08-06T07:34:58;0.20;;;0.10;;
79135;SDS011;68533;51.090;17.216;2023-08-06T07:37:32;0.17;;;0.10;;
79135;SDS011;68533;51.090;17.216;2023-08-06T07:39:58;0.45;;;0.15;;
79135;SDS011;68533;51.090;17.216;2023-08-06T07:42:24;0.20;;;0.20;;
79135;SDS011;68533;51.090;17.216;2023-08-06T07:44:54;0.20;;;0.20;;
79135;SDS011;68533;51.090;17.216;2023-08-06T07:47:21;0.30;;;0.10;;
79135;SDS011;68533;51.090;17.216;2023-08-06T07:49:47;0.03;;;0.03;;
79135;SDS011;68533;51.090;17.216;2023-08-06T07:52:13;0.93;;;0.32;;
79135;SDS011;68533;51.090;17.216;2023-08-06T07:54:40;0.77;;;0.32;;
79135;SDS011;68533;51.090;17.216;2023-08-06T07:57:06;0.55;;;0.15;;
79135;SDS011;68533;51.090;17.216;2023-08-06T07:59:32;0.32;;;0.17;;
79135;SDS011;68533;51.090;17.216;2023-08-06T08:01:58;0.20;;;0.10;;
79135;SDS011;68533;51.090;17.216;2023-08-06T08:04:25;1.15;;;0.20;;
79135;SDS011;68533;51.090;17.216;2023-08-06T08:06:50;0.68;;;0.30;;
79135;SDS011;68533;51.090;17.216;2023-08-06T08:09:17;0.17;;;0.10;;
79135;SDS011;68533;51.090;17.216;2023-08-06T08:11:43;0.28;;;0.20;;
79135;SDS011;68533;51.090;17.216;2023-08-06T08:14:11;0.30;;;0.10;;
79135;SDS011;68533;51.090;17.216;2023-08-06T08:16:37;0.20;;;0.10;;
79135;SDS011;68533;51.090;17.216;2023-08-06T08:19:03;0.50;;;0.25;;
79135;SDS011;68533;51.090;17.216;2023-08-06T08:21:29;0.45;;;0.30;;
79135;SDS011;68533;51.090;17.216;2023-08-06T08:23:56;0.30;;;0.25;;
79135;SDS011;68533;51.090;17.216;2023-08-06T08:26:23;0.85;;;0.47;;
79135;SDS011;68533;51.090;17.216;2023-08-06T08:28:50;0.30;;;0.20;;
79135;SDS011;68533;51.090;17.216;2023-08-06T08:31:16;0.73;;;0.32;;
79135;SDS011;68533;51.090;17.216;2023-08-06T08:33:45;0.75;;;0.20;;
79135;SDS011;68533;51.090;17.216;2023-08-06T08:36:10;0.95;;;0.50;;
79135;SDS011;68533;51.090;17.216;2023-08-06T08:38:37;0.80;;;0.68;;
79135;SDS011;68533;51.090;17.216;2023-08-06T08:41:03;0.98;;;0.63;;
79135;SDS011;68533;51.090;17.216;2023-08-06T08:43:29;1.30;;;0.63;;
79135;SDS011;68533;51.090;17.216;2023-08-06T08:45:56;0.65;;;0.60;;
79135;SDS011;68533;51.090;17.216;2023-08-06T08:48:25;1.30;;;0.90;;
79135;SDS011;68533;51.090;17.216;2023-08-06T08:50:52;1.27;;;0.80;;
79135;SDS011;68533;51.090;17.216;2023-08-06T08:53:19;1.60;;;1.17;;
79135;SDS011;68533;51.090;17.216;2023-08-06T08:55:48;2.60;;;1.13;;
79135;SDS011;68533;51.090;17.216;2023-08-06T08:58:15;4.65;;;1.33;;
79135;SDS011;68533;51.090;17.216;2023-08-06T09:00:41;2.00;;;1.50;;
79135;SDS011;68533;51.090;17.216;2023-08-06T09:03:08;2.00;;;1.33;;
79135;SDS011;68533;51.090;17.216;2023-08-06T09:05:35;1.90;;;1.15;;
79135;SDS011;68533;51.090;17.216;2023-08-06T09:08:04;1.58;;;1.27;;
79135;SDS011;68533;51.090;17.216;2023-08-06T09:10:30;1.58;;;1.13;;
79135;SDS011;68533;51.090;17.216;2023-08-06T09:12:57;1.25;;;1.10;;
79135;SDS011;68533;51.090;17.216;2023-08-06T09:15:24;1.95;;;1.30;;
79135;SDS011;68533;51.090;17.216;2023-08-06T09:17:52;1.13;;;0.82;;
79135;SDS011;68533;51.090;17.216;2023-08-06T09:20:19;2.08;;;1.38;;
79135;SDS011;68533;51.090;17.216;2023-08-06T09:22:45;1.08;;;0.90;;
79135;SDS011;68533;51.090;17.216;2023-08-06T09:25:20;2.70;;;0.90;;
79135;SDS011;68533;51.090;17.216;2023-08-06T09:27:49;1.92;;;0.90;;
79135;SDS011;68533;51.090;17.216;2023-08-06T09:30:28;1.25;;;0.73;;
79135;SDS011;68533;51.090;17.216;2023-08-06T09:32:59;2.55;;;1.15;;
79135;SDS011;68533;51.090;17.216;2023-08-06T09:35:27;1.73;;;1.05;;
79135;SDS011;68533;51.090;17.216;2023-08-06T09:37:55;1.10;;;0.80;;
79135;SDS011;68533;51.090;17.216;2023-08-06T09:40:32;1.45;;;0.80;;
79135;SDS011;68533;51.090;17.216;2023-08-06T09:42:59;1.92;;;0.90;;
79135;SDS011;68533;51.090;17.216;2023-08-06T09:45:28;1.80;;;0.70;;
79135;SDS011;68533;51.090;17.216;2023-08-06T09:47:58;2.38;;;0.90;;
79135;SDS011;68533;51.090;17.216;2023-08-06T09:50:32;1.50;;;0.63;;
79135;SDS011;68533;51.090;17.216;2023-08-06T09:53:00;2.28;;;0.70;;
79135;SDS011;68533;51.090;17.216;2023-08-06T09:55:26;1.45;;;0.52;;
79135;SDS011;68533;51.090;17.216;2023-08-06T09:57:53;0.88;;;0.60;;
79135;SDS011;68533;51.090;17.216;2023-08-06T10:00:20;1.25;;;0.73;;
79135;SDS011;68533;51.090;17.216;2023-08-06T10:02:47;2.42;;;1.02;;
79135;SDS011;68533;51.090;17.216;2023-08-06T10:05:15;1.25;;;0.80;;
79135;SDS011;68533;51.090;17.216;2023-08-06T10:07:42;2.85;;;0.77;;
79135;SDS011;68533;51.090;17.216;2023-08-06T10:10:09;1.30;;;0.60;;
79135;SDS011;68533;51.090;17.216;2023-08-06T10:12:37;1.52;;;0.60;;
79135;SDS011;68533;51.090;17.216;2023-08-06T10:15:08;1.10;;;0.60;;
79135;SDS011;68533;51.090;17.216;2023-08-06T10:17:37;0.95;;;0.65;;
79135;SDS011;68533;51.090;17.216;2023-08-06T10:20:05;1.23;;;0.50;;
79135;SDS011;68533;51.090;17.216;2023-08-06T10:22:33;0.50;;;0.40;;
79135;SDS011;68533;51.090;17.216;2023-08-06T10:25:00;0.82;;;0.55;;
79135;SDS011;68533;51.090;17.216;2023-08-06T10:27:40;0.80;;;0.50;;
79135;SDS011;68533;51.090;17.216;2023-08-06T10:30:28;1.13;;;0.70;;
79135;SDS011;68533;51.090;17.216;2023-08-06T10:33:01;1.55;;;0.57;;
79135;SDS011;68533;51.090;17.216;2023-08-06T10:38:20;0.80;;;0.60;;
79135;SDS011;68533;51.090;17.216;2023-08-06T10:43:29;1.10;;;0.88;;
79135;SDS011;68533;51.090;17.216;2023-08-06T10:45:56;1.13;;;0.50;;
79135;SDS011;68533;51.090;17.216;2023-08-06T10:48:31;0.77;;;0.50;;
79135;SDS011;68533;51.090;17.216;2023-08-06T10:51:00;2.63;;;0.63;;
79135;SDS011;68533;51.090;17.216;2023-08-06T10:53:27;2.80;;;0.65;;
79135;SDS011;68533;51.090;17.216;2023-08-06T10:55:53;0.93;;;0.50;;
79135;SDS011;68533;51.090;17.216;2023-08-06T10:58:20;0.73;;;0.40;;
79135;SDS011;68533;51.090;17.216;2023-08-06T11:00:46;0.40;;;0.30;;
79135;SDS011;68533;51.090;17.216;2023-08-06T11:03:12;1.15;;;0.55;;
79135;SDS011;68533;51.090;17.216;2023-08-06T11:05:38;0.65;;;0.50;;
79135;SDS011;68533;51.090;17.216;2023-08-06T11:08:05;1.63;;;0.60;;
79135;SDS011;68533;51.090;17.216;2023-08-06T11:10:32;0.75;;;0.43;;
79135;SDS011;68533;51.090;17.216;2023-08-06T11:13:03;0.65;;;0.50;;
79135;SDS011;68533;51.090;17.216;2023-08-06T11:15:32;1.08;;;0.77;;
79135;SDS011;68533;51.090;17.216;2023-08-06T11:17:58;1.52;;;0.77;;
79135;SDS011;68533;51.090;17.216;2023-08-06T11:20:24;0.82;;;0.40;;
79135;SDS011;68533;51.090;17.216;2023-08-06T11:22:51;0.80;;;0.52;;
79135;SDS011;68533;51.090;17.216;2023-08-06T11:25:19;1.08;;;0.50;;
79135;SDS011;68533;51.090;17.216;2023-08-06T11:27:47;1.52;;;0.47;;
79135;SDS011;68533;51.090;17.216;2023-08-06T11:30:14;0.68;;;0.40;;
79135;SDS011;68533;51.090;17.216;2023-08-06T11:32:47;1.00;;;0.30;;
79135;SDS011;68533;51.090;17.216;2023-08-06T11:35:14;0.90;;;0.50;;
79135;SDS011;68533;51.090;17.216;2023-08-06T11:37:44;1.17;;;0.55;;
79135;SDS011;68533;51.090;17.216;2023-08-06T11:40:11;5.43;;;0.70;;
79135;SDS011;68533;51.090;17.216;2023-08-06T11:42:37;0.60;;;0.35;;
79135;SDS011;68533;51.090;17.216;2023-08-06T11:45:03;0.60;;;0.40;;
79135;SDS011;68533;51.090;17.216;2023-08-06T11:47:30;0.93;;;0.35;;
79135;SDS011;68533;51.090;17.216;2023-08-06T11:49:56;0.60;;;0.40;;
79135;SDS011;68533;51.090;17.216;2023-08-06T11:52:23;0.90;;;0.40;;
79135;SDS011;68533;51.090;17.216;2023-08-06T11:55:03;0.57;;;0.40;;
79135;SDS011;68533;51.090;17.216;2023-08-06T11:57:36;0.40;;;0.20;;
79135;SDS011;68533;51.090;17.216;2023-08-06T12:00:06;0.82;;;0.50;;
79135;SDS011;68533;51.090;17.216;2023-08-06T12:02:44;0.55;;;0.30;;
79135;SDS011;68533;51.090;17.216;2023-08-06T12:05:14;3.03;;;0.40;;
79135;SDS011;68533;51.090;17.216;2023-08-06T12:07:43;1.33;;;0.40;;
79135;SDS011;68533;51.090;17.216;2023-08-06T12:10:17;0.80;;;0.65;;
79135;SDS011;68533;51.090;17.216;2023-08-06T12:12:48;1.27;;;0.60;;
79135;SDS011;68533;51.090;17.216;2023-08-06T12:15:15;0.68;;;0.60;;
79135;SDS011;68533;51.090;17.216;2023-08-06T12:17:45;0.70;;;0.50;;
79135;SDS011;68533;51.090;17.216;2023-08-06T12:20:11;1.02;;;0.63;;
79135;SDS011;68533;51.090;17.216;2023-08-06T12:22:38;1.13;;;0.60;;
79135;SDS011;68533;51.090;17.216;2023-08-06T12:25:06;0.43;;;0.35;;
79135;SDS011;68533;51.090;17.216;2023-08-06T12:27:34;0.70;;;0.47;;
79135;SDS011;68533;51.090;17.216;2023-08-06T12:30:04;0.43;;;0.40;;
79135;SDS011;68533;51.090;17.216;2023-08-06T12:32:31;1.23;;;0.40;;
79135;SDS011;68533;51.090;17.216;2023-08-06T12:34:58;0.77;;;0.55;;
79135;SDS011;68533;51.090;17.216;2023-08-06T12:37:25;0.28;;;0.28;;
79135;SDS011;68533;51.090;17.216;2023-08-06T12:39:51;0.65;;;0.57;;
79135;SDS011;68533;51.090;17.216;2023-08-06T12:42:17;0.73;;;0.50;;
79135;SDS011;68533;51.090;17.216;2023-08-06T12:44:46;1.02;;;0.32;;
79135;SDS011;68533;51.090;17.216;2023-08-06T12:47:14;0.90;;;0.40;;
79135;SDS011;68533;51.090;17.216;2023-08-06T12:49:40;0.88;;;0.68;;
79135;SDS011;68533;51.090;17.216;2023-08-06T12:52:06;1.05;;;0.65;;
79135;SDS011;68533;51.090;17.216;2023-08-06T12:54:33;0.60;;;0.40;;
79135;SDS011;68533;51.090;17.216;2023-08-06T12:57:02;0.70;;;0.43;;
79135;SDS011;68533;51.090;17.216;2023-08-06T12:59:29;1.20;;;0.52;;
79135;SDS011;68533;51.090;17.216;2023-08-06T13:01:55;1.60;;;0.70;;
79135;SDS011;68533;51.090;17.216;2023-08-06T13:04:25;0.88;;;0.63;;
79135;SDS011;68533;51.090;17.216;2023-08-06T13:06:51;2.45;;;0.70;;
79135;SDS011;68533;51.090;17.216;2023-08-06T13:09:17;2.13;;;0.95;;
79135;SDS011;68533;51.090;17.216;2023-08-06T13:11:43;0.82;;;0.63;;
79135;SDS011;68533;51.090;17.216;2023-08-06T13:14:12;1.55;;;0.95;;
79135;SDS011;68533;51.090;17.216;2023-08-06T13:16:40;1.60;;;0.70;;
79135;SDS011;68533;51.090;17.216;2023-08-06T13:19:07;1.00;;;0.60;;
79135;SDS011;68533;51.090;17.216;2023-08-06T13:24:03;1.58;;;0.63;;
79135;SDS011;68533;51.090;17.216;2023-08-06T13:26:30;2.22;;;0.90;;
79135;SDS011;68533;51.090;17.216;2023-08-06T13:28:59;1.40;;;1.25;;
79135;SDS011;68533;51.090;17.216;2023-08-06T13:31:26;1.80;;;1.30;;
79135;SDS011;68533;51.090;17.216;2023-08-06T13:33:56;8.88;;;1.05;;
79135;SDS011;68533;51.090;17.216;2023-08-06T13:36:26;1.10;;;1.00;;
79135;SDS011;68533;51.090;17.216;2023-08-06T13:38:52;1.30;;;1.02;;
79135;SDS011;68533;51.090;17.216;2023-08-06T13:41:19;2.15;;;1.05;;
79135;SDS011;68533;51.090;17.216;2023-08-06T13:43:45;1.70;;;1.00;;
79135;SDS011;68533;51.090;17.216;2023-08-06T13:46:11;1.85;;;1.30;;
79135;SDS011;68533;51.090;17.216;2023-08-06T13:48:42;2.30;;;1.35;;
79135;SDS011;68533;51.090;17.216;2023-08-06T13:51:10;1.60;;;0.93;;
79135;SDS011;68533;51.090;17.216;2023-08-06T13:53:37;2.47;;;1.00;;
79135;SDS011;68533;51.090;17.216;2023-08-06T13:56:09;1.15;;;0.73;;
79135;SDS011;68533;51.090;17.216;2023-08-06T13:58:36;1.20;;;0.80;;
79135;SDS011;68533;51.090;17.216;2023-08-06T14:01:06;1.50;;;0.90;;
79135;SDS011;68533;51.090;17.216;2023-08-06T14:03:32;3.08;;;0.93;;
79135;SDS011;68533;51.090;17.216;2023-08-06T14:05:58;1.50;;;0.57;;
79135;SDS011;68533;51.090;17.216;2023-08-06T14:08:24;1.38;;;0.95;;
79135;SDS011;68533;51.090;17.216;2023-08-06T14:10:51;1.42;;;0.90;;
79135;SDS011;68533;51.090;17.216;2023-08-06T14:13:17;1.00;;;0.85;;
79135;SDS011;68533;51.090;17.216;2023-08-06T14:15:44;1.15;;;0.60;;
79135;SDS011;68533;51.090;17.216;2023-08-06T14:18:15;1.20;;;0.60;;
79135;SDS011;68533;51.090;17.216;2023-08-06T14:20:44;1.00;;;0.80;;
79135;SDS011;68533;51.090;17.216;2023-08-06T14:23:10;0.68;;;0.50;;
79135;SDS011;68533;51.090;17.216;2023-08-06T14:25:38;0.80;;;0.50;;
79135;SDS011;68533;51.090;17.216;2023-08-06T14:28:05;1.13;;;0.60;;
79135;SDS011;68533;51.090;17.216;2023-08-06T14:30:32;1.00;;;0.50;;
79135;SDS011;68533;51.090;17.216;2023-08-06T14:32:59;1.33;;;0.80;;
79135;SDS011;68533;51.090;17.216;2023-08-06T14:35:27;1.13;;;0.52;;
79135;SDS011;68533;51.090;17.216;2023-08-06T14:37:53;1.45;;;0.57;;
79135;SDS011;68533;51.090;17.216;2023-08-06T14:40:20;1.35;;;0.75;;
79135;SDS011;68533;51.090;17.216;2023-08-06T14:42:45;0.98;;;0.70;;
79135;SDS011;68533;51.090;17.216;2023-08-06T14:45:12;1.30;;;0.77;;